createdAt,value
2017-08-12T00:00:02.781Z,92.73
2017-08-12T00:02:31.841Z,93.03
2017-08-12T00:05:00.963Z,92.92
2017-08-12T00:07:29.283Z,92.89
2017-08-12T00:09:57.623Z,93.13
2017-08-12T00:12:25.957Z,93.22
2017-08-12T00:14:54.868Z,93.14
2017-08-12T00:17:23.216Z,93.30
2017-08-12T00:19:51.542Z,92.99
2017-08-12T00:22:19.883Z,92.98
2017-08-12T00:24:48.216Z,93.29
2017-08-12T00:27:16.570Z,93.02
2017-08-12T00:29:44.948Z,93.45
2017-08-12T00:32:15.000Z,93.76
2017-08-12T00:34:43.324Z,93.44
2017-08-12T00:37:11.669Z,93.02
2017-08-12T00:39:40.010Z,92.92
2017-08-12T00:42:08.394Z,93.00
2017-08-12T00:44:36.756Z,93.36
2017-08-12T00:47:05.848Z,93.22
2017-08-12T00:49:34.433Z,93.25
2017-08-12T00:52:03.541Z,92.83
2017-08-12T00:54:31.986Z,93.47
2017-08-12T00:57:00.335Z,93.75
2017-08-12T00:59:28.660Z,94.01
2017-08-12T01:01:57.023Z,93.50
2017-08-12T01:04:25.389Z,93.40
2017-08-12T01:06:53.768Z,92.92
2017-08-12T01:09:22.111Z,93.01
2017-08-12T01:11:50.487Z,93.10
2017-08-12T01:14:18.888Z,92.67
2017-08-12T01:16:47.227Z,93.15
2017-08-12T01:19:16.359Z,93.79
2017-08-12T01:21:44.690Z,93.22
2017-08-12T01:24:14.325Z,93.34
2017-08-12T01:26:42.648Z,93.38
2017-08-12T01:29:10.975Z,93.71
2017-08-12T01:31:40.079Z,93.62
2017-08-12T01:34:08.407Z,92.97
2017-08-12T01:36:37.428Z,93.31
2017-08-12T01:39:05.793Z,93.41
2017-08-12T01:41:34.156Z,92.83
2017-08-12T01:44:02.533Z,92.91
2017-08-12T01:46:30.876Z,93.00
2017-08-12T01:48:59.256Z,92.76
2017-08-12T01:51:27.597Z,93.15
2017-08-12T01:53:55.962Z,93.42
2017-08-12T01:56:24.318Z,92.97
2017-08-12T01:58:52.711Z,92.96
2017-08-12T02:01:21.190Z,92.97
2017-08-12T02:03:49.594Z,92.83
2017-08-12T02:06:17.944Z,92.74
2017-08-12T02:08:46.291Z,92.99
2017-08-12T02:11:15.701Z,93.14
2017-08-12T02:13:44.036Z,93.37
2017-08-12T02:16:12.377Z,92.95
2017-08-12T02:18:40.723Z,93.05
2017-08-12T02:21:09.849Z,92.37
2017-08-12T02:23:38.218Z,92.48
2017-08-12T02:26:06.573Z,93.63
2017-08-12T02:28:34.938Z,93.54
2017-08-12T02:31:03.293Z,93.66
2017-08-12T02:33:31.630Z,93.47
2017-08-12T02:36:00.754Z,93.19
2017-08-12T02:38:29.081Z,92.20
2017-08-12T02:40:57.432Z,92.54
2017-08-12T02:43:25.765Z,92.47
2017-08-12T02:45:54.111Z,92.42
2017-08-12T02:48:22.532Z,92.47
2017-08-12T02:50:50.866Z,92.98
2017-08-12T02:53:19.220Z,93.04
2017-08-12T02:55:47.552Z,93.30
2017-08-12T02:58:15.918Z,93.03
2017-08-12T03:01:03.896Z,92.56
2017-08-12T03:03:32.244Z,92.75
2017-08-12T03:06:00.592Z,92.90
2017-08-12T03:08:29.602Z,93.12
2017-08-12T03:10:57.953Z,93.82
2017-08-12T03:13:26.280Z,93.63
2017-08-12T03:15:55.437Z,93.46
2017-08-12T03:18:23.774Z,93.25
2017-08-12T03:20:52.120Z,93.00
2017-08-12T03:23:20.456Z,92.81
2017-08-12T03:25:48.805Z,93.71
2017-08-12T03:28:17.920Z,93.15
2017-08-12T03:30:46.248Z,92.72
2017-08-12T03:33:14.591Z,92.04
2017-08-12T03:35:42.943Z,92.20
2017-08-12T03:38:12.052Z,93.11
2017-08-12T03:40:40.385Z,93.24
2017-08-12T03:43:09.026Z,93.39
2017-08-12T03:45:37.429Z,93.81
2017-08-12T03:48:05.755Z,93.64
2017-08-12T03:50:34.893Z,93.14
2017-08-12T03:53:03.206Z,93.09
2017-08-12T03:55:31.557Z,93.28
2017-08-12T03:57:59.879Z,92.68
2017-08-12T04:00:28.248Z,92.74
2017-08-12T04:02:56.594Z,92.97
2017-08-12T04:05:28.575Z,92.71
2017-08-12T04:07:56.947Z,92.70
2017-08-12T04:10:25.280Z,92.80
2017-08-12T04:12:53.658Z,92.35
2017-08-12T04:15:23.525Z,93.15
2017-08-12T04:17:51.897Z,92.72
2017-08-12T04:20:20.275Z,92.70
2017-08-12T04:22:48.595Z,92.41
2017-08-12T04:25:16.935Z,92.29
2017-08-12T04:27:45.259Z,93.00
2017-08-12T04:30:13.618Z,92.91
2017-08-12T04:32:41.958Z,92.32
2017-08-12T04:35:10.320Z,91.87
2017-08-12T04:37:38.687Z,92.09
2017-08-12T04:40:07.025Z,92.17
2017-08-12T04:42:35.390Z,92.38
2017-08-12T04:45:03.739Z,92.25
2017-08-12T04:47:32.101Z,91.98
2017-08-12T04:50:01.193Z,91.84
2017-08-12T04:52:29.536Z,91.49
2017-08-12T04:54:57.915Z,91.40
2017-08-12T04:57:26.230Z,91.74
2017-08-12T04:59:55.351Z,91.72
2017-08-12T05:02:23.684Z,91.89
2017-08-12T05:04:52.407Z,92.63
2017-08-12T05:07:20.771Z,92.49
2017-08-12T05:09:49.101Z,92.37
2017-08-12T05:12:17.441Z,92.82
2017-08-12T05:14:46.532Z,92.70
2017-08-12T05:17:14.886Z,92.94
2017-08-12T05:19:43.224Z,93.19
2017-08-12T05:22:11.568Z,92.64
2017-08-12T05:24:41.342Z,93.09
2017-08-12T05:27:09.678Z,93.15
2017-08-12T05:29:38.046Z,93.62
2017-08-12T05:32:06.382Z,93.01
2017-08-12T05:34:34.757Z,92.66
2017-08-12T05:37:03.076Z,92.68
2017-08-12T05:39:32.180Z,92.89
2017-08-12T05:42:00.532Z,92.93
2017-08-12T05:44:28.856Z,92.85
2017-08-12T05:46:57.202Z,92.69
2017-08-12T05:49:25.567Z,92.60
2017-08-12T05:51:53.916Z,92.12
2017-08-12T05:54:22.236Z,92.10
2017-08-12T05:56:50.584Z,92.18
2017-08-12T05:59:18.932Z,92.04
2017-08-12T06:01:47.260Z,92.33
2017-08-12T06:04:15.672Z,91.48
2017-08-12T06:06:44.016Z,92.26
2017-08-12T06:09:12.390Z,91.94
2017-08-12T06:11:40.711Z,91.52
2017-08-12T06:14:09.860Z,91.44
2017-08-12T06:16:38.224Z,91.46
2017-08-12T06:19:06.568Z,91.21
2017-08-12T06:21:34.943Z,91.49
2017-08-12T06:24:03.285Z,91.35
2017-08-12T06:26:31.647Z,91.09
2017-08-12T06:29:00.005Z,90.98
2017-08-12T06:31:28.385Z,91.47
2017-08-12T06:33:56.750Z,91.25
2017-08-12T06:36:25.099Z,90.53
2017-08-12T06:38:53.469Z,90.75
2017-08-12T06:41:21.796Z,90.20
2017-08-12T06:43:50.145Z,90.85
2017-08-12T06:46:18.479Z,91.06
2017-08-12T06:48:46.823Z,90.88
2017-08-12T06:51:15.222Z,90.20
2017-08-12T06:53:43.566Z,90.33
2017-08-12T06:56:12.273Z,90.00
2017-08-12T06:58:40.611Z,88.72
2017-08-12T07:01:08.971Z,88.49
2017-08-12T07:03:37.951Z,88.34
2017-08-12T07:06:06.714Z,87.82
2017-08-12T07:08:35.054Z,87.38
2017-08-12T07:11:03.384Z,88.25
2017-08-12T07:13:31.827Z,87.71
2017-08-12T07:16:00.158Z,87.29
2017-08-12T07:18:28.946Z,87.70
2017-08-12T07:20:57.281Z,88.04
2017-08-12T07:23:26.464Z,87.80
2017-08-12T07:25:54.808Z,86.40
2017-08-12T07:28:23.166Z,87.01
2017-08-12T07:30:51.517Z,86.79
2017-08-12T07:33:19.845Z,87.46
2017-08-12T07:35:48.189Z,84.79
2017-08-12T07:38:16.541Z,85.13
2017-08-12T07:40:44.886Z,86.98
2017-08-12T07:43:13.314Z,87.39
2017-08-12T07:45:41.648Z,87.87
2017-08-12T07:48:10.015Z,86.02
2017-08-12T07:50:38.334Z,87.01
2017-08-12T07:53:06.687Z,86.66
2017-08-12T07:55:35.033Z,88.28
2017-08-12T07:58:03.400Z,86.64
2017-08-12T08:00:31.733Z,86.17
2017-08-12T08:03:00.047Z,87.64
2017-08-12T08:05:28.412Z,88.39
2017-08-12T08:07:56.741Z,87.56
2017-08-12T08:10:25.101Z,86.75
2017-08-12T08:12:54.235Z,87.49
2017-08-12T08:15:22.589Z,86.47
2017-08-12T08:17:50.958Z,86.05
2017-08-12T08:20:19.296Z,86.40
2017-08-12T08:22:47.649Z,87.31
2017-08-12T08:25:15.985Z,86.71
2017-08-12T08:27:46.009Z,87.14
2017-08-12T08:30:14.368Z,86.33
2017-08-12T08:32:42.706Z,87.13
2017-08-12T08:35:11.061Z,85.94
2017-08-12T08:37:40.166Z,87.16
2017-08-12T08:40:08.515Z,85.34
2017-08-12T08:42:36.877Z,85.75
2017-08-12T08:45:05.246Z,87.60
2017-08-12T08:47:33.612Z,85.50
2017-08-12T08:50:01.962Z,85.31
2017-08-12T08:52:30.326Z,86.13
2017-08-12T08:54:59.416Z,86.06
2017-08-12T08:57:27.776Z,86.31
2017-08-12T08:59:56.120Z,85.17
2017-08-12T09:02:24.466Z,85.05
2017-08-12T09:04:54.102Z,84.23
2017-08-12T09:07:22.440Z,86.13
2017-08-12T09:09:51.584Z,85.29
2017-08-12T09:12:19.926Z,84.99
2017-08-12T09:14:48.280Z,85.38
2017-08-12T09:17:16.628Z,85.67
2017-08-12T09:19:45.008Z,85.11
2017-08-12T09:22:13.357Z,84.87
2017-08-12T09:24:41.689Z,84.53
2017-08-12T09:27:10.038Z,86.38
2017-08-12T09:29:38.369Z,86.67
2017-08-12T09:32:06.740Z,84.49
2017-08-12T09:34:35.063Z,84.55
2017-08-12T09:37:03.420Z,84.58
2017-08-12T09:39:31.780Z,84.31
2017-08-12T09:42:00.111Z,84.79
2017-08-12T09:44:28.464Z,87.18
2017-08-12T09:46:57.601Z,84.86
2017-08-12T09:49:26.017Z,84.03
2017-08-12T09:51:54.383Z,85.36
2017-08-12T09:54:22.753Z,83.89
2017-08-12T09:56:51.108Z,84.12
2017-08-12T09:59:19.431Z,83.73
2017-08-12T10:01:47.765Z,83.78
2017-08-12T10:04:16.110Z,84.42
2017-08-12T10:06:45.223Z,82.92
2017-08-12T10:09:13.544Z,83.88
2017-08-12T10:11:41.921Z,85.10
2017-08-12T10:14:10.280Z,82.13
2017-08-12T10:16:38.618Z,83.59
2017-08-12T10:19:07.738Z,81.53
2017-08-12T10:21:36.067Z,83.42
2017-08-12T10:24:04.832Z,81.81
2017-08-12T10:26:33.171Z,83.15
2017-08-12T10:29:01.516Z,82.31
2017-08-12T10:31:29.929Z,82.43
2017-08-12T10:33:58.263Z,82.62
2017-08-12T10:36:26.685Z,80.60
2017-08-12T10:38:55.045Z,81.70
2017-08-12T10:41:23.755Z,82.39
2017-08-12T10:43:52.108Z,81.07
2017-08-12T10:46:20.442Z,82.60
2017-08-12T10:48:48.793Z,80.65
2017-08-12T10:51:17.898Z,80.09
2017-08-12T10:53:46.257Z,80.06
2017-08-12T10:56:14.593Z,80.09
2017-08-12T10:58:43.350Z,80.28
2017-08-12T11:01:11.672Z,80.56
2017-08-12T11:03:40.006Z,79.69
2017-08-12T11:06:09.111Z,80.97
2017-08-12T11:08:37.427Z,79.90
2017-08-12T11:11:05.782Z,80.43
2017-08-12T11:13:34.120Z,78.97
2017-08-12T11:16:02.500Z,78.82
2017-08-12T11:18:31.644Z,82.15
2017-08-12T11:20:59.995Z,81.23
2017-08-12T11:23:28.358Z,80.28
2017-08-12T11:25:56.699Z,80.97
2017-08-12T11:28:25.062Z,80.85
2017-08-12T11:30:53.407Z,80.22
2017-08-12T11:33:22.526Z,79.39
2017-08-12T11:35:50.853Z,78.82
2017-08-12T11:38:19.197Z,79.77
2017-08-12T11:40:48.134Z,80.52
2017-08-12T11:43:16.520Z,80.64
2017-08-12T11:45:44.860Z,80.18
2017-08-12T11:48:13.180Z,79.19
2017-08-12T11:50:41.533Z,81.16
2017-08-12T11:53:09.886Z,79.79
2017-08-12T11:55:38.214Z,79.81
2017-08-12T11:58:06.564Z,80.07
2017-08-12T12:00:34.950Z,80.71
2017-08-12T12:03:03.313Z,80.77
2017-08-12T12:05:31.654Z,80.20
2017-08-12T12:08:00.794Z,80.20
2017-08-12T12:10:29.141Z,81.92
2017-08-12T12:12:57.469Z,80.26
2017-08-12T12:15:25.826Z,81.33
2017-08-12T12:17:54.157Z,80.88
2017-08-12T12:20:23.282Z,81.71
2017-08-12T12:22:51.615Z,80.65
2017-08-12T12:25:19.979Z,80.46
2017-08-12T12:27:48.332Z,80.79
2017-08-12T12:30:16.686Z,79.89
2017-08-12T12:32:45.805Z,80.89
2017-08-12T12:35:15.516Z,81.43
2017-08-12T12:37:43.855Z,80.35
2017-08-12T12:40:12.169Z,80.57
2017-08-12T12:42:40.844Z,82.57
2017-08-12T12:45:09.193Z,80.20
2017-08-12T12:47:37.537Z,80.75
2017-08-12T12:50:05.912Z,80.30
2017-08-12T12:52:34.266Z,81.39
2017-08-12T12:55:02.602Z,81.70
2017-08-12T12:57:30.941Z,79.69
2017-08-12T12:59:59.298Z,79.77
2017-08-12T13:02:27.675Z,80.04
2017-08-12T13:04:56.034Z,80.10
2017-08-12T13:07:24.423Z,80.55
2017-08-12T13:09:52.757Z,80.06
2017-08-12T13:12:21.133Z,81.04
2017-08-12T13:14:49.482Z,79.91
2017-08-12T13:17:18.193Z,80.18
2017-08-12T13:19:46.544Z,80.22
2017-08-12T13:22:14.872Z,80.27
2017-08-12T13:24:43.245Z,81.43
2017-08-12T13:27:11.581Z,80.43
2017-08-12T13:29:40.721Z,80.96
2017-08-12T13:32:09.086Z,81.54
2017-08-12T13:34:37.757Z,81.34
2017-08-12T13:37:06.099Z,82.24
2017-08-12T13:39:34.432Z,82.08
2017-08-12T13:42:02.834Z,81.66
2017-08-12T13:44:31.446Z,82.10
2017-08-12T13:46:59.803Z,81.67
2017-08-12T13:49:28.140Z,81.80
2017-08-12T13:51:56.989Z,81.58
2017-08-12T13:54:25.324Z,81.48
2017-08-12T13:56:53.661Z,81.09
2017-08-12T13:59:22.782Z,81.39
2017-08-12T14:01:51.115Z,81.53
2017-08-12T14:04:19.842Z,82.48
2017-08-12T14:06:48.173Z,82.19
2017-08-12T14:09:16.549Z,82.26
2017-08-12T14:11:44.902Z,82.50
2017-08-12T14:14:13.249Z,82.64
2017-08-12T14:16:42.372Z,83.29
2017-08-12T14:19:10.721Z,83.82
2017-08-12T14:21:39.097Z,82.58
2017-08-12T14:24:07.485Z,82.62
2017-08-12T14:26:35.840Z,83.95
2017-08-12T14:29:04.203Z,82.64
2017-08-12T14:31:32.527Z,82.78
2017-08-12T14:34:01.624Z,83.30
2017-08-12T14:36:29.966Z,82.97
2017-08-12T14:38:58.283Z,82.87
2017-08-12T14:41:27.389Z,82.83
2017-08-12T14:43:55.728Z,82.38
2017-08-12T14:46:24.385Z,82.45
2017-08-12T14:48:52.730Z,83.16
2017-08-12T14:51:21.078Z,83.73
2017-08-12T14:53:49.482Z,83.43
2017-08-12T14:56:18.591Z,84.10
2017-08-12T14:58:46.962Z,83.44
2017-08-12T15:01:15.291Z,84.32
2017-08-12T15:03:44.024Z,83.40
2017-08-12T15:06:12.372Z,83.05
2017-08-12T15:08:41.269Z,83.46
2017-08-12T15:11:09.628Z,82.75
2017-08-12T15:13:37.984Z,82.47
2017-08-12T15:16:06.338Z,82.47
2017-08-12T15:18:34.676Z,83.31
2017-08-12T15:21:03.306Z,82.83
2017-08-12T15:23:31.660Z,82.69
2017-08-12T15:26:11.523Z,82.10
2017-08-12T15:28:40.419Z,81.76
2017-08-12T15:31:08.782Z,81.98
2017-08-12T15:33:37.131Z,82.03
2017-08-12T15:36:05.476Z,81.96
2017-08-12T15:38:33.815Z,81.31
2017-08-12T15:41:02.189Z,81.03
2017-08-12T15:43:30.943Z,80.97
2017-08-12T15:45:59.258Z,80.76
2017-08-12T15:48:27.588Z,80.79
2017-08-12T15:50:56.234Z,81.28
2017-08-12T15:53:24.573Z,81.16
2017-08-12T15:55:52.917Z,81.55
2017-08-12T15:58:21.299Z,81.33
2017-08-12T16:00:49.673Z,81.24
2017-08-12T16:03:18.022Z,81.50
2017-08-12T16:05:46.359Z,81.00
2017-08-12T16:08:15.379Z,81.52
2017-08-12T16:10:43.707Z,81.07
2017-08-12T16:13:12.835Z,80.92
2017-08-12T16:15:41.165Z,80.89
2017-08-12T16:18:09.954Z,80.75
2017-08-12T16:20:38.287Z,80.91
2017-08-12T16:23:06.632Z,81.42
2017-08-12T16:25:34.990Z,82.03
2017-08-12T16:28:03.325Z,81.71
2017-08-12T16:30:31.672Z,82.04
2017-08-12T16:33:00.770Z,82.08
2017-08-12T16:35:29.468Z,81.63
2017-08-12T16:37:57.813Z,81.63
2017-08-12T16:40:26.150Z,81.48
2017-08-12T16:42:54.499Z,81.48
2017-08-12T16:45:22.840Z,81.22
2017-08-12T16:47:51.203Z,81.69
2017-08-12T16:50:19.967Z,80.96
2017-08-12T16:52:48.275Z,81.17
2017-08-12T16:55:16.628Z,81.70
2017-08-12T16:57:44.963Z,81.06
2017-08-12T17:00:13.808Z,81.12
2017-08-12T17:02:42.220Z,80.95
2017-08-12T17:05:10.586Z,81.27
2017-08-12T17:07:38.933Z,81.73
2017-08-12T17:10:07.273Z,81.56
2017-08-12T17:12:36.393Z,81.55
2017-08-12T17:15:04.742Z,82.07
2017-08-12T17:17:33.488Z,81.76
2017-08-12T17:20:01.831Z,81.79
2017-08-12T17:22:30.189Z,81.37
2017-08-12T17:24:58.549Z,81.88
2017-08-12T17:27:26.900Z,81.06
2017-08-12T17:29:55.243Z,81.14
2017-08-12T17:32:24.339Z,81.80
2017-08-12T17:34:53.023Z,81.86
2017-08-12T17:37:21.373Z,81.68
2017-08-12T17:39:49.718Z,81.58
2017-08-12T17:42:18.060Z,81.36
2017-08-12T17:44:46.394Z,81.79
2017-08-12T17:47:14.783Z,82.04
2017-08-12T17:49:43.110Z,82.11
2017-08-12T17:52:11.717Z,81.98
2017-08-12T17:54:40.072Z,82.31
2017-08-12T17:57:08.411Z,82.29
2017-08-12T17:59:36.764Z,82.38
2017-08-12T18:02:05.086Z,82.33
2017-08-12T18:04:33.426Z,82.40
2017-08-12T18:07:01.761Z,82.54
2017-08-12T18:09:30.108Z,82.39
2017-08-12T18:11:58.448Z,82.38
2017-08-12T18:14:27.708Z,82.20
2017-08-12T18:16:56.081Z,82.26
2017-08-12T18:19:24.440Z,82.57
2017-08-12T18:21:52.834Z,82.66
2017-08-12T18:24:21.166Z,82.61
2017-08-12T18:26:49.531Z,82.91
2017-08-12T18:29:17.887Z,82.73
2017-08-12T18:31:46.636Z,83.68
2017-08-12T18:34:14.981Z,83.35
2017-08-12T18:36:43.359Z,84.22
2017-08-12T18:39:14.592Z,83.90
2017-08-12T18:41:43.364Z,83.81
2017-08-12T18:44:11.690Z,83.68
2017-08-12T18:46:40.040Z,83.88
2017-08-12T18:49:08.371Z,84.08
2017-08-12T18:51:37.493Z,84.68
2017-08-12T18:54:05.821Z,84.80
2017-08-12T18:56:34.193Z,84.82
2017-08-12T18:59:02.542Z,85.33
2017-08-12T19:01:30.882Z,85.30
2017-08-12T19:03:59.258Z,85.04
2017-08-12T19:06:29.731Z,84.88
2017-08-12T19:08:58.188Z,85.07
2017-08-12T19:11:26.504Z,85.29
2017-08-12T19:13:55.880Z,85.40
2017-08-12T19:16:24.217Z,85.66
2017-08-12T19:18:52.588Z,85.71
2017-08-12T19:21:20.946Z,85.59
2017-08-12T19:23:50.108Z,85.88
2017-08-12T19:26:18.571Z,85.73
2017-08-12T19:28:46.990Z,85.58
2017-08-12T19:31:15.939Z,86.07
2017-08-12T19:33:44.275Z,85.80
2017-08-12T19:36:12.641Z,85.65
2017-08-12T19:38:41.907Z,85.80
2017-08-12T19:41:11.981Z,85.50
2017-08-12T19:43:41.106Z,85.56
2017-08-12T19:46:09.437Z,85.98
2017-08-12T19:48:37.816Z,85.77
2017-08-12T19:51:06.164Z,85.92
2017-08-12T19:53:34.517Z,85.91
2017-08-12T19:56:02.861Z,86.00
2017-08-12T19:58:31.206Z,86.16
2017-08-12T20:00:59.584Z,86.02
2017-08-12T20:03:27.971Z,86.23
2017-08-12T20:05:56.385Z,86.55
2017-08-12T20:08:25.513Z,86.77
2017-08-12T20:10:53.860Z,86.49
2017-08-12T20:13:22.214Z,86.43
2017-08-12T20:15:50.581Z,86.63
2017-08-12T20:18:18.944Z,86.39
2017-08-12T20:20:47.280Z,86.59
2017-08-12T20:23:15.994Z,86.07
2017-08-12T20:25:44.363Z,86.24
2017-08-12T20:28:13.497Z,85.94
2017-08-12T20:30:42.151Z,86.11
2017-08-12T20:33:11.322Z,86.26
2017-08-12T20:35:39.765Z,85.94
2017-08-12T20:38:08.113Z,85.95
2017-08-12T20:40:36.461Z,86.04
2017-08-12T20:43:04.808Z,86.39
2017-08-12T20:45:33.568Z,86.71
2017-08-12T20:48:02.357Z,85.94
2017-08-12T20:50:30.702Z,86.04
2017-08-12T20:52:59.053Z,86.43
2017-08-12T20:55:27.442Z,86.62
2017-08-12T20:57:55.781Z,86.53
2017-08-12T21:00:24.151Z,86.28
2017-08-12T21:02:52.514Z,86.29
2017-08-12T21:05:21.609Z,86.09
2017-08-12T21:07:49.979Z,86.33
2017-08-12T21:10:18.342Z,86.14
2017-08-12T21:12:46.707Z,86.09
2017-08-12T21:15:15.079Z,86.13
2017-08-12T21:17:43.729Z,85.82
2017-08-12T21:20:12.841Z,86.00
2017-08-12T21:22:41.188Z,86.37
2017-08-12T21:25:09.547Z,86.59
2017-08-12T21:27:37.894Z,86.44
2017-08-12T21:30:06.280Z,86.64
2017-08-12T21:32:34.610Z,86.88
2017-08-12T21:35:03.749Z,87.40
2017-08-12T21:37:32.101Z,86.97
2017-08-12T21:40:00.453Z,86.68
2017-08-12T21:42:28.862Z,86.91
2017-08-12T21:44:57.183Z,86.99
2017-08-12T21:47:25.531Z,87.04
2017-08-12T21:49:53.852Z,87.01
2017-08-12T21:52:23.428Z,86.65
2017-08-12T21:54:51.763Z,86.68
2017-08-12T21:57:20.097Z,86.97
2017-08-12T21:59:48.970Z,87.08
2017-08-12T22:02:17.312Z,87.17
2017-08-12T22:04:45.729Z,87.43
2017-08-12T22:07:14.056Z,87.44
2017-08-12T22:09:42.660Z,87.32
2017-08-12T22:12:10.987Z,87.29
2017-08-12T22:14:39.329Z,87.31
2017-08-12T22:17:07.680Z,87.14
2017-08-12T22:19:36.025Z,87.31
2017-08-12T22:22:04.384Z,87.63
2017-08-12T22:24:32.718Z,87.58
2017-08-12T22:27:01.533Z,88.09
2017-08-12T22:29:29.929Z,88.17
2017-08-12T22:31:58.248Z,87.84
2017-08-12T22:34:26.589Z,88.03
2017-08-12T22:36:54.927Z,88.28
2017-08-12T22:39:23.289Z,88.08
2017-08-12T22:41:51.612Z,87.87
2017-08-12T22:44:19.979Z,88.13
2017-08-12T22:46:48.339Z,88.03
2017-08-12T22:49:16.688Z,87.87
2017-08-12T22:51:45.042Z,88.34
2017-08-12T22:54:13.362Z,88.24
2017-08-12T22:56:41.718Z,88.05
2017-08-12T22:59:10.055Z,88.11
2017-08-12T23:01:39.471Z,87.82
2017-08-12T23:04:07.804Z,87.83
2017-08-12T23:06:36.115Z,87.69
2017-08-12T23:09:04.846Z,87.87
2017-08-12T23:11:33.184Z,88.00
2017-08-12T23:14:01.529Z,88.51
2017-08-12T23:16:29.973Z,88.40
2017-08-12T23:18:59.322Z,88.06
2017-08-12T23:21:27.638Z,87.81
2017-08-12T23:23:56.734Z,87.72
2017-08-12T23:26:25.094Z,87.39
2017-08-12T23:28:53.443Z,87.23
2017-08-12T23:31:21.790Z,87.25
2017-08-12T23:33:50.147Z,87.18
2017-08-12T23:36:19.559Z,87.89
2017-08-12T23:38:47.901Z,87.34
2017-08-12T23:41:16.276Z,87.17
2017-08-12T23:43:44.647Z,87.33
2017-08-12T23:46:12.984Z,87.74
2017-08-12T23:48:42.111Z,87.60
2017-08-12T23:51:10.474Z,87.58
2017-08-12T23:53:39.149Z,87.44
2017-08-12T23:56:07.481Z,87.25
2017-08-12T23:58:35.814Z,87.38
